Time;durP1;ratioP1;P1;durP2;ratioP2;P2;SDS_P1;SDS_P2;PMS_P1;PMS_P2;Temp;Humidity;BMP_temperature;BMP_pressure;BME280_temperature;BME280_humidity;BME280_pressure;Samples;Min_cycle;Max_cycle;Signal;HPM_P1;HPM_P2
2023/05/18 00:00:29;;;;;;;;;;;12.70;74.40;;;12.91;47.93;99343.22;5085469;27;114532;-91
2023/05/18 00:02:56;;;;;;;;;;;12.60;74.50;;;12.89;48.22;99334.41;5083290;27;113558;-92
2023/05/18 00:05:32;;;;;;;;;;;12.60;74.80;;;12.91;48.09;99343.22;5075714;27;124124;-93
2023/05/18 00:08:00;;;;;;;;;;;13.70;75.90;;;12.88;48.13;99341.09;5087982;27;124497;-91
2023/05/18 00:10:26;;;;;;;;;;;12.60;75.30;;;12.78;48.15;99329.09;5065615;27;115386;-91
2023/05/18 00:12:54;;;;;;;;;;;12.60;75.10;;;12.72;48.18;99329.53;5087181;27;115013;-91
2023/05/18 00:15:21;;;;;;;;;;;12.50;75.00;;;12.70;48.52;99315.97;5080764;27;125083;-91
2023/05/18 00:17:49;;;;;;;;;;;12.50;75.10;;;12.73;48.32;99320.88;5085757;27;124317;-92
2023/05/18 00:20:20;;;;;;;;;;;12.50;75.20;;;12.70;48.41;99321.53;5085164;27;114689;-92
2023/05/18 00:22:49;;;;;;;;;;;12.50;75.30;;;12.63;48.20;99312.84;5069113;27;113796;-92
2023/05/18 00:25:15;;;;;;;;;;;12.40;75.00;;;12.58;48.42;99312.97;5087292;27;124302;-92
2023/05/18 00:27:42;;;;;;;;;;;12.40;75.10;;;12.56;48.50;99312.44;5089293;27;123097;-92
2023/05/18 00:30:11;;;;;;;;;;;12.40;75.10;;;12.56;48.33;99321.56;5086241;27;114335;-92
2023/05/18 00:32:39;;;;;;;;;;;12.40;75.30;;;12.56;48.56;99312.44;5083209;27;113873;-92
2023/05/18 00:35:06;;;;;;;;;;;12.40;75.60;;;12.55;48.70;99316.38;5088413;27;124599;-92
2023/05/18 00:37:34;;;;;;;;;;;12.30;75.60;;;12.55;48.52;99308.03;5069070;27;122302;-91
2023/05/18 00:40:05;;;;;;;;;;;12.40;75.90;;;12.55;48.85;99319.13;5088778;27;114421;-92
2023/05/18 00:42:31;;;;;;;;;;;12.30;75.90;;;12.53;48.97;99316.66;5068842;27;113730;-91
2023/05/18 00:44:57;;;;;;;;;;;12.30;76.10;;;12.53;48.70;99321.38;5085436;27;122839;-92
2023/05/18 00:47:24;;;;;;;;;;;12.30;76.20;;;12.54;48.75;99320.25;5089302;27;123886;-91
2023/05/18 00:49:50;;;;;;;;;;;12.30;76.30;;;12.52;48.88;99319.72;5075615;27;113851;-91
2023/05/18 00:52:16;;;;;;;;;;;12.30;76.30;;;12.50;48.98;99319.25;5062634;27;112894;-91
2023/05/18 00:54:43;;;;;;;;;;;12.20;76.30;;;12.47;49.13;99322.66;5090353;27;124501;-91
2023/05/18 00:57:11;;;;;;;;;;;12.30;76.50;;;12.47;49.27;99322.66;5078552;27;123898;-91
2023/05/18 00:59:40;;;;;;;;;;;12.20;76.50;;;12.45;49.18;99322.13;5090170;27;115412;-91
2023/05/18 01:02:10;;;;;;;;;;;12.20;76.60;;;12.43;49.10;99321.63;5085075;27;114423;-91
2023/05/18 01:04:40;;;;;;;;;;;12.20;76.70;;;12.43;49.21;99321.63;5083301;27;123786;-90
2023/05/18 01:07:06;;;;;;;;;;;12.20;76.90;;;12.41;49.24;99307.25;5086238;27;124033;-92
2023/05/18 01:09:35;;;;;;;;;;;11.40;76.20;;;12.42;49.28;99315.25;5055439;27;114319;-92
2023/05/18 01:12:10;;;;;;;;;;;12.20;77.10;;;12.42;49.37;99325.53;5053666;27;112482;-91
2023/05/18 01:14:44;;;;;;;;;;;12.10;77.30;;;12.40;49.68;99319.47;5090318;27;124330;-91
2023/05/18 01:17:13;;;;;;;;;;;12.10;77.30;;;12.38;49.71;99323.38;5066673;27;124498;-91
2023/05/18 01:19:42;;;;;;;;;;;12.10;77.50;;;12.37;49.70;99316.19;5092211;27;114356;-92
2023/05/18 01:22:36;;;;;;;;;;;12.10;77.70;;;12.38;49.93;99331.69;5090439;27;113838;-91
2023/05/18 01:25:28;;;;;;;;;;;12.10;77.80;;;12.34;50.17;99324.31;5086079;27;124578;-91
2023/05/18 01:28:04;;;;;;;;;;;12.10;77.90;;;12.28;50.14;99318.06;5090137;27;123387;-92
2023/05/18 01:30:37;;;;;;;;;;;12.00;77.90;;;12.22;50.08;99322.06;5071591;27;114530;-91
2023/05/18 01:33:11;;;;;;;;;;;12.00;78.00;;;12.19;50.02;99316.34;5091871;27;114301;-89
2023/05/18 01:35:40;;;;;;;;;;;12.00;78.10;;;12.16;50.05;99320.53;5089535;27;124090;-92
2023/05/18 01:38:06;;;;;;;;;;;11.90;78.10;;;12.12;50.45;99314.00;5053379;27;123982;-88
2023/05/18 01:40:46;;;;;;;;;;;11.90;78.20;;;12.08;50.32;99310.19;5085811;27;114751;-91
2023/05/18 01:43:17;;;;;;;;;;;11.90;78.30;;;12.04;50.69;99307.22;5076488;27;112839;-89
2023/05/18 01:45:46;;;;;;;;;;;11.80;78.30;;;12.01;50.46;99313.41;5060190;27;124790;-91
2023/05/18 01:48:18;;;;;;;;;;;11.80;78.40;;;12.00;50.41;99316.47;5076061;27;124008;-89
2023/05/18 01:50:46;;;;;;;;;;;11.80;78.50;;;12.00;50.52;99324.78;5091256;27;115067;-91
2023/05/18 01:53:42;;;;;;;;;;;11.80;78.70;;;11.95;50.57;99311.84;5058673;27;115010;-92
2023/05/18 01:56:09;;;;;;;;;;;11.80;78.80;;;11.92;51.00;99318.81;5067208;27;124355;-91
2023/05/18 01:58:39;;;;;;;;;;;11.70;78.90;;;11.89;51.13;99319.44;5089409;27;123967;-89
2023/05/18 02:01:05;;;;;;;;;;;11.70;79.00;;;11.87;51.24;99307.84;5060886;27;114429;-91
2023/05/18 02:03:32;;;;;;;;;;;11.60;79.10;;;11.85;51.26;99306.50;5089442;27;112944;-89
2023/05/18 02:05:58;;;;;;;;;;;11.70;79.50;;;11.81;51.14;99311.00;5090269;27;124386;-89
2023/05/18 02:08:24;;;;;;;;;;;11.60;79.40;;;11.80;51.12;99317.69;5088815;27;124023;-88
2023/05/18 02:10:51;;;;;;;;;;;11.60;79.60;;;11.76;51.51;99314.69;5080572;27;114474;-89
2023/05/18 02:13:17;;;;;;;;;;;11.60;79.70;;;11.74;51.17;99308.66;5071020;27;113724;-90
2023/05/18 02:15:43;;;;;;;;;;;11.50;79.80;;;11.71;51.47;99309.25;5090638;27;124187;-89
2023/05/18 02:18:10;;;;;;;;;;;12.80;81.20;;;11.71;51.69;99306.47;5089924;27;123324;-89
2023/05/18 02:20:36;;;;;;;;;;;11.50;80.00;;;11.68;51.49;99310.69;5091156;27;114648;-89
2023/05/18 02:23:03;;;;;;;;;;;11.50;80.10;;;11.66;51.50;99309.34;5090444;27;113952;-88
2023/05/18 02:25:30;;;;;;;;;;;11.40;80.20;;;11.62;51.76;99306.38;5090441;27;124128;-88
2023/05/18 02:27:56;;;;;;;;;;;11.40;80.30;;;11.58;51.99;99301.75;5077152;27;124058;-88
2023/05/18 02:30:22;;;;;;;;;;;11.40;80.50;;;11.56;52.17;99304.84;5091410;27;114692;-88
2023/05/18 02:32:49;;;;;;;;;;;11.30;80.50;;;11.53;51.76;99304.66;5092009;27;113525;-86
2023/05/18 02:35:16;;;;;;;;;;;11.30;80.60;;;11.48;52.12;99298.06;5091777;27;124315;-88
2023/05/18 02:37:43;;;;;;;;;;;11.30;80.60;;;11.44;52.02;99294.28;5069742;27;122006;-88
2023/05/18 02:40:11;;;;;;;;;;;11.30;80.70;;;11.44;52.26;99294.28;5078952;27;115514;-87
2023/05/18 02:42:37;;;;;;;;;;;11.30;80.90;;;11.39;52.01;99290.78;5080782;27;114197;-88
2023/05/18 02:45:04;;;;;;;;;;;11.20;80.80;;;11.38;52.02;99286.38;5092539;27;123597;-87
2023/05/18 02:47:31;;;;;;;;;;;11.20;80.80;;;11.36;52.02;99297.75;5091300;27;122509;-88
2023/05/18 02:49:57;;;;;;;;;;;11.20;80.90;;;11.36;52.24;99297.75;5077643;27;113815;-88
2023/05/18 02:52:23;;;;;;;;;;;11.20;81.00;;;11.31;52.35;99283.19;5092968;27;113954;-87
2023/05/18 02:54:49;;;;;;;;;;;11.10;81.30;;;11.32;52.32;99291.19;5059816;27;121935;-87
2023/05/18 02:57:28;;;;;;;;;;;11.10;81.00;;;11.30;52.31;99292.63;5092900;27;123276;-88
2023/05/18 02:59:54;;;;;;;;;;;11.10;81.00;;;11.26;52.02;99289.66;5078419;27;114125;-88
2023/05/18 03:02:37;;;;;;;;;;;10.90;80.90;;;11.22;52.20;99292.19;5096204;27;113695;-87
2023/05/18 03:05:04;;;;;;;;;;;11.00;81.00;;;11.18;52.53;99288.41;5094969;27;123788;-88
2023/05/18 03:07:31;;;;;;;;;;;11.00;81.10;;;11.17;52.47;99292.28;5079659;27;123933;-89
2023/05/18 03:10:01;;;;;;;;;;;12.70;82.80;;;11.15;52.18;99297.31;5096294;27;113802;-87
2023/05/18 03:12:27;;;;;;;;;;;10.90;81.10;;;11.15;52.31;99299.25;5100497;27;112938;-86
2023/05/18 03:14:56;;;;;;;;;;;10.90;81.30;;;11.12;52.18;99295.13;5096842;27;124215;-87
2023/05/18 03:17:25;;;;;;;;;;;10.90;81.20;;;11.09;52.37;99289.41;5076111;27;123454;-85
2023/05/18 03:19:51;;;;;;;;;;;10.90;81.20;;;11.09;52.65;99289.41;5017841;27;112865;-88
2023/05/18 03:25:44;;;;;;;;;;;10.80;81.20;;;11.02;52.65;99290.63;5106224;27;125376;-86
2023/05/18 03:28:40;;;;;;;;;;;10.80;81.30;;;11.00;52.30;99292.06;5099671;27;123593;-89
2023/05/18 03:31:21;;;;;;;;;;;10.80;81.30;;;10.96;52.63;99300.16;5097230;27;114926;-85
2023/05/18 03:33:51;;;;;;;;;;;10.80;81.40;;;10.93;52.59;99295.19;5100907;27;114633;-86
2023/05/18 03:36:26;;;;;;;;;;;10.70;81.40;;;10.92;52.58;99295.50;5084902;27;122284;-87
2023/05/18 03:39:04;;;;;;;;;;;10.70;81.50;;;10.91;52.41;99289.19;5060462;27;123728;-87
2023/05/18 03:42:10;;;;;;;;;;;10.70;81.60;;;10.89;52.71;99290.59;5095992;27;115283;-85
2023/05/18 03:45:26;;;;;;;;;;;10.70;81.60;;;10.84;52.42;99299.78;5100437;27;113727;-88
2023/05/18 03:57:59;;;;;;;;;;;10.40;81.20;;;10.71;52.53;99306.09;5114493;27;114850;-88
2023/05/18 04:00:29;;;;;;;;;;;10.50;81.30;;;10.69;52.73;99311.91;5024809;27;124941;-86
2023/05/18 04:06:13;;;;;;;;;;;10.50;81.40;;;10.69;52.45;99319.38;5067480;27;115372;-87
2023/05/18 04:08:44;;;;;;;;;;;10.40;81.30;;;10.68;52.75;99317.75;5090957;27;113171;-86
2023/05/18 04:11:35;;;;;;;;;;;10.50;81.40;;;10.68;52.11;99323.28;5100205;27;124694;-86
2023/05/18 04:14:19;;;;;;;;;;;10.50;81.50;;;10.68;52.31;99312.22;5096328;27;123731;-86
2023/05/18 04:17:03;;;;;;;;;;;10.50;81.50;;;10.68;52.36;99317.75;5101887;27;113154;-86
2023/05/18 04:19:51;;;;;;;;;;;10.40;81.50;;;10.69;52.54;99320.19;5082398;27;113326;-86
2023/05/18 04:22:29;;;;;;;;;;;10.40;81.60;;;10.71;52.47;99317.13;5040214;27;124253;-86
2023/05/18 04:25:04;;;;;;;;;;;10.50;81.70;;;10.72;52.59;99327.06;5063744;27;123668;-87
2023/05/18 04:27:32;;;;;;;;;;;10.40;81.70;;;10.71;52.46;99328.19;5065201;27;115610;-88
2023/05/18 04:29:58;;;;;;;;;;;10.40;81.70;;;10.67;52.61;99332.69;5049001;27;113564;-87
2023/05/18 04:32:29;;;;;;;;;;;10.40;81.80;;;10.66;52.66;99325.50;4982936;28;122320;-86
2023/05/18 04:35:05;;;;;;;;;;;10.40;81.60;;;10.60;52.30;99335.81;4979640;28;123224;-87
2023/05/18 04:37:58;;;;;;;;;;;10.40;81.80;;;10.54;52.96;99335.06;4975365;28;113872;-86
2023/05/18 04:40:32;;;;;;;;;;;10.40;81.70;;;10.52;52.62;99330.97;4926056;28;114403;-86
2023/05/18 04:43:07;;;;;;;;;;;10.30;81.80;;;10.49;52.48;99329.63;4914807;28;123856;-88
2023/05/18 04:45:44;;;;;;;;;;;10.30;81.80;;;10.49;52.79;99343.44;4916008;28;122931;-87
2023/05/18 04:48:18;;;;;;;;;;;10.30;81.80;;;10.47;52.66;99342.09;4907009;28;114964;-87
2023/05/18 04:50:48;;;;;;;;;;;10.30;81.90;;;10.50;52.66;99347.00;4910048;28;113060;-86
2023/05/18 04:53:32;;;;;;;;;;;10.20;81.80;;;10.49;52.58;99346.19;4908860;28;123814;-88
2023/05/18 04:56:08;;;;;;;;;;;10.30;82.10;;;10.51;52.81;99343.97;4903762;28;123787;-87
2023/05/18 04:58:35;;;;;;;;;;;10.20;81.90;;;10.56;52.69;99341.13;4907374;28;113943;-86
2023/05/18 05:01:02;;;;;;;;;;;10.30;81.90;;;10.61;52.14;99338.28;4898252;28;112485;-87
2023/05/18 05:03:28;;;;;;;;;;;10.30;81.80;;;10.68;52.05;99343.44;4926319;28;123953;-88
2023/05/18 05:05:55;;;;;;;;;;;10.40;81.90;;;10.71;52.00;99331.78;4958957;28;123292;-89
2023/05/18 05:08:21;;;;;;;;;;;10.40;81.80;;;10.72;51.86;99341.72;4966613;28;114516;-89
2023/05/18 05:10:49;;;;;;;;;;;10.40;82.00;;;10.75;52.08;99343.88;4951169;28;113820;-87
2023/05/18 05:13:18;;;;;;;;;;;10.40;81.60;;;10.81;52.06;99342.66;4940515;28;123892;-86
2023/05/18 05:15:44;;;;;;;;;;;10.40;81.50;;;10.78;51.68;99339.69;4978343;28;123910;-87
2023/05/18 05:18:11;;;;;;;;;;;10.50;81.40;;;10.78;51.55;99346.03;5074392;27;114445;-87
2023/05/18 05:20:37;;;;;;;;;;;10.50;81.10;;;10.78;51.75;99345.22;5096807;27;114207;-88
2023/05/18 05:23:04;;;;;;;;;;;10.50;81.10;;;10.76;51.26;99339.16;5088623;27;122513;-88
2023/05/18 05:25:41;;;;;;;;;;;10.50;81.00;;;10.75;51.62;99346.66;5085073;27;122780;-89
2023/05/18 05:28:08;;;;;;;;;;;10.40;81.00;;;10.74;51.61;99344.97;5057414;27;112900;-88
2023/05/18 05:30:35;;;;;;;;;;;10.40;81.10;;;10.73;52.05;99343.34;5050233;27;112055;-88
2023/05/18 05:33:02;;;;;;;;;;;10.40;81.10;;;10.78;51.74;99342.47;5043700;27;123763;-88
2023/05/18 05:35:54;;;;;;;;;;;10.40;81.30;;;10.80;51.66;99342.97;5059543;27;122692;-86
2023/05/18 05:38:21;;;;;;;;;;;11.60;82.30;;;10.80;51.14;99342.97;5021618;28;112337;-87
2023/05/18 05:40:49;;;;;;;;;;;10.40;81.00;;;10.83;51.41;99354.25;5059252;27;114090;-88
2023/05/18 05:43:16;;;;;;;;;;;10.50;81.10;;;10.86;51.48;99352.03;5021738;27;123281;-88
2023/05/18 05:45:43;;;;;;;;;;;10.50;80.90;;;10.90;51.31;99356.63;5040536;27;123087;-87
2023/05/18 05:48:16;;;;;;;;;;;10.60;80.90;;;10.94;50.89;99349.38;5042992;27;114416;-89
2023/05/18 05:50:43;;;;;;;;;;;10.10;80.20;;;10.97;51.21;99347.97;5049872;27;112822;-89
2023/05/18 05:53:18;;;;;;;;;;;10.60;80.50;;;10.96;50.70;99347.16;5059293;27;123734;-88
2023/05/18 05:55:46;;;;;;;;;;;10.60;80.60;;;11.04;51.02;99346.47;5047224;27;123820;-88
2023/05/18 05:58:13;;;;;;;;;;;10.70;80.70;;;11.08;50.75;99354.16;5041964;27;114575;-88
2023/05/18 06:00:41;;;;;;;;;;;10.70;80.50;;;11.16;50.54;99339.63;5094648;27;113770;-87
2023/05/18 06:03:12;;;;;;;;;;;10.80;80.60;;;11.21;50.43;99343.13;5081644;27;124448;-88
2023/05/18 06:05:38;;;;;;;;;;;10.80;80.30;;;11.25;50.42;99343.31;5088434;27;123198;-88
2023/05/18 06:08:08;;;;;;;;;;;10.80;80.30;;;11.31;50.71;99341.28;5081170;27;115593;-89
2023/05/18 06:10:34;;;;;;;;;;;10.90;80.30;;;11.37;50.33;99346.44;5077407;27;115095;-89
2023/05/18 06:13:00;;;;;;;;;;;10.90;80.20;;;11.42;50.08;99349.13;5086402;27;124331;-89
2023/05/18 06:15:26;;;;;;;;;;;10.90;79.90;;;11.48;49.56;99347.88;5082453;27;124085;-88
2023/05/18 06:17:53;;;;;;;;;;;11.00;79.80;;;11.55;49.72;99357.72;5084637;27;114309;-88
2023/05/18 06:20:19;;;;;;;;;;;11.00;79.50;;;11.59;49.51;99344.94;5081429;27;113474;-88
2023/05/18 06:22:46;;;;;;;;;;;11.10;79.60;;;11.64;49.65;99344.84;5092236;27;123499;-89
2023/05/18 06:25:12;;;;;;;;;;;10.20;78.70;;;11.67;49.06;99344.22;5079937;27;123955;-89
2023/05/18 06:27:38;;;;;;;;;;;11.20;79.40;;;11.75;49.24;99342.69;5082441;27;113977;-87
2023/05/18 06:30:06;;;;;;;;;;;11.30;79.30;;;11.85;49.37;99351.63;5078690;27;113658;-89
2023/05/18 06:32:32;;;;;;;;;;;11.40;79.40;;;11.94;48.94;99346.22;5084229;27;124426;-90
2023/05/18 06:34:59;;;;;;;;;;;11.40;79.30;;;12.01;48.96;99343.00;5058460;27;123819;-90
2023/05/18 06:37:25;;;;;;;;;;;11.50;79.20;;;12.08;48.64;99337.88;5090628;27;113781;-89
2023/05/18 06:39:52;;;;;;;;;;;11.50;79.00;;;12.16;48.59;99337.16;5088847;27;113690;-90
2023/05/18 06:42:18;;;;;;;;;;;11.60;79.00;;;12.26;48.81;99339.72;5084224;27;124328;-89
2023/05/18 06:44:44;;;;;;;;;;;11.70;79.20;;;12.35;48.54;99339.78;5082987;27;123597;-90
2023/05/18 06:47:10;;;;;;;;;;;11.80;79.00;;;12.44;48.38;99342.66;5090091;27;114487;-89
2023/05/18 06:49:37;;;;;;;;;;;11.90;79.00;;;12.50;48.25;99344.19;5084442;27;113681;-90
2023/05/18 06:52:04;;;;;;;;;;;12.70;79.50;;;12.56;48.07;99343.75;5071822;27;123649;-89
2023/05/18 06:54:31;;;;;;;;;;;12.00;78.70;;;12.67;48.28;99346.28;5076950;27;124281;-90
2023/05/18 06:57:02;;;;;;;;;;;12.10;78.60;;;12.77;47.79;99338.56;5083349;27;115222;-90
2023/05/18 06:59:30;;;;;;;;;;;12.20;78.50;;;12.82;47.55;99343.16;5078328;27;115303;-90
2023/05/18 07:01:56;;;;;;;;;;;12.20;78.00;;;12.89;47.30;99340.75;5053808;27;123991;-89
2023/05/18 07:04:23;;;;;;;;;;;12.30;78.10;;;12.95;46.85;99344.22;5068849;27;123924;-89
2023/05/18 07:06:50;;;;;;;;;;;12.30;77.50;;;13.01;47.00;99343.78;5075646;27;114427;-88
2023/05/18 07:09:16;;;;;;;;;;;12.40;77.80;;;13.12;47.08;99336.03;5050474;27;113604;-89
2023/05/18 07:11:44;;;;;;;;;;;12.50;77.60;;;13.26;46.99;99338.75;5046786;27;123208;-88
2023/05/18 07:14:10;;;;;;;;;;;12.60;78.00;;;13.36;46.80;99341.28;5076348;27;124112;-88
2023/05/18 07:16:36;;;;;;;;;;;12.70;77.90;;;13.45;46.21;99350.47;5053882;27;114947;-87
2023/05/18 07:19:03;;;;;;;;;;;12.80;76.90;;;13.46;46.10;99345.75;5070724;27;113966;-87
2023/05/18 07:21:30;;;;;;;;;;;12.80;76.70;;;13.50;46.38;99341.19;5063636;27;124144;-86
2023/05/18 07:23:56;;;;;;;;;;;12.90;77.40;;;13.52;45.84;99341.69;5087836;27;123866;-88
2023/05/18 07:26:25;;;;;;;;;;;12.90;76.30;;;13.55;46.07;99341.06;5088118;27;114210;-87
2023/05/18 07:28:52;;;;;;;;;;;12.90;76.40;;;13.62;45.86;99341.44;5070833;27;113560;-87
2023/05/18 07:31:20;;;;;;;;;;;13.00;76.40;;;13.68;45.83;99342.91;5085464;27;124191;-87
2023/05/18 07:33:47;;;;;;;;;;;13.10;76.60;;;13.79;45.88;99339.88;5086935;27;124014;-86
2023/05/18 07:36:13;;;;;;;;;;;13.20;76.50;;;13.90;46.05;99335.66;5067933;27;114494;-87
2023/05/18 07:38:40;;;;;;;;;;;13.30;76.80;;;14.02;45.97;99338.63;5073698;27;112553;-88
2023/05/18 07:41:06;;;;;;;;;;;13.40;76.80;;;14.14;45.57;99336.06;5080618;27;124195;-86
2023/05/18 07:43:32;;;;;;;;;;;13.50;76.50;;;14.21;44.91;99324.47;5081782;27;123840;-87
2023/05/18 07:45:59;;;;;;;;;;;13.50;75.60;;;14.24;44.71;99326.59;5086594;27;115351;-87
2023/05/18 07:48:25;;;;;;;;;;;13.60;75.10;;;14.27;44.61;99316.81;5075488;27;114668;-87
2023/05/18 07:50:52;;;;;;;;;;;13.60;75.20;;;14.30;44.60;99316.97;5076793;27;124957;-87
2023/05/18 07:53:19;;;;;;;;;;;13.70;75.00;;;14.34;44.66;99317.94;5084630;27;124592;-86
2023/05/18 07:55:45;;;;;;;;;;;13.70;74.90;;;14.42;44.58;99313.53;5063432;27;113375;-85
2023/05/18 07:58:12;;;;;;;;;;;13.80;75.00;;;14.53;44.20;99309.34;5083074;27;113930;-86
2023/05/18 08:00:38;;;;;;;;;;;13.90;74.70;;;14.61;44.04;99309.66;5088663;27;124914;-88
2023/05/18 08:03:05;;;;;;;;;;;13.90;74.20;;;14.68;44.03;99315.56;5088761;27;124194;-87
2023/05/18 08:05:31;;;;;;;;;;;14.00;74.80;;;14.79;43.90;99311.28;5075040;27;114432;-87
2023/05/18 08:07:58;;;;;;;;;;;14.10;74.60;;;14.86;43.46;99310.81;5070550;27;114225;-86
2023/05/18 08:10:24;;;;;;;;;;;14.10;73.80;;;14.93;43.69;99311.94;5070685;27;124058;-86
2023/05/18 08:12:51;;;;;;;;;;;14.20;74.20;;;15.02;43.30;99307.19;5087311;27;124653;-88
2023/05/18 08:15:17;;;;;;;;;;;14.30;74.20;;;15.12;43.14;99307.97;5073066;27;113654;-86
2023/05/18 08:17:44;;;;;;;;;;;14.40;73.70;;;15.19;43.36;99305.53;5087530;27;113694;-87
2023/05/18 08:20:10;;;;;;;;;;;14.50;74.00;;;15.28;43.22;99311.88;5088238;27;123983;-84
2023/05/18 08:22:36;;;;;;;;;;;14.60;73.80;;;15.38;42.57;99308.72;5077855;27;122591;-86
2023/05/18 08:25:03;;;;;;;;;;;14.70;72.80;;;15.41;42.07;99313.63;5078783;27;114295;-86
2023/05/18 08:27:30;;;;;;;;;;;14.70;72.00;;;15.48;42.36;99304.78;5047926;27;112557;-88
2023/05/18 08:29:56;;;;;;;;;;;14.80;72.40;;;15.55;41.72;99298.69;5055648;27;123878;-87
2023/05/18 08:32:22;;;;;;;;;;;14.80;71.60;;;15.54;41.48;99294.28;5045345;27;121360;-85
2023/05/18 08:34:50;;;;;;;;;;;14.90;71.20;;;15.59;41.71;99289.34;5063128;27;115293;-84
2023/05/18 08:37:16;;;;;;;;;;;15.00;71.20;;;15.66;41.52;99280.44;5076738;27;113950;-86
2023/05/18 08:39:45;;;;;;;;;;;15.00;71.10;;;15.74;40.73;99287.97;5087790;27;124118;-87
2023/05/18 08:42:40;;;;;;;;;;;15.10;70.10;;;15.75;40.39;99292.41;5062303;27;125225;-87
2023/05/18 08:45:23;;;;;;;;;;;15.10;69.30;;;15.82;40.01;99287.13;5078591;27;114661;-89
2023/05/18 08:47:50;;;;;;;;;;;15.10;68.70;;;15.82;39.76;99286.31;5062446;27;113401;-89
2023/05/18 08:50:19;;;;;;;;;;;15.10;68.20;;;15.82;39.11;99272.38;5074334;27;123484;-88
2023/05/18 08:52:47;;;;;;;;;;;15.20;67.60;;;15.84;39.93;99275.66;5082458;27;123707;-90
2023/05/18 08:55:16;;;;;;;;;;;15.20;68.30;;;15.92;39.87;99273.97;5061096;27;115056;-88
2023/05/18 08:57:45;;;;;;;;;;;15.30;67.90;;;15.98;39.69;99265.06;5069418;27;113959;-89
2023/05/18 09:00:12;;;;;;;;;;;15.40;68.20;;;16.08;39.69;99269.44;5069096;27;123102;-90
2023/05/18 09:02:39;;;;;;;;;;;15.40;68.00;;;16.17;39.34;99258.22;5076920;27;123720;-89
2023/05/18 09:05:09;;;;;;;;;;;15.50;67.80;;;16.26;39.15;99256.22;5084599;27;112557;-89
2023/05/18 09:07:41;;;;;;;;;;;15.60;67.80;;;16.33;38.91;99262.06;5067254;27;113664;-89
2023/05/18 09:10:15;;;;;;;;;;;15.70;66.80;;;16.38;38.31;99252.69;5068272;27;123833;-89
2023/05/18 09:12:42;;;;;;;;;;;15.70;66.00;;;16.42;37.83;99262.00;5075460;27;125231;-83
2023/05/18 09:15:16;;;;;;;;;;;15.80;65.30;;;16.46;37.97;99265.72;5082079;27;114454;-89
2023/05/18 09:17:42;;;;;;;;;;;15.80;65.60;;;16.50;38.05;99261.13;5089419;27;113467;-90
2023/05/18 09:20:09;;;;;;;;;;;15.90;65.60;;;16.55;37.86;99263.72;5056897;27;123616;-88
2023/05/18 09:22:35;;;;;;;;;;;15.90;64.90;;;16.59;37.56;99256.28;5064667;27;124142;-87
2023/05/18 09:25:05;;;;;;;;;;;16.00;64.60;;;16.66;36.57;99258.53;5082655;27;115576;-89
2023/05/18 09:27:34;;;;;;;;;;;16.00;63.30;;;16.71;37.23;99247.13;5076375;27;114991;-92
2023/05/18 09:30:00;;;;;;;;;;;16.10;64.20;;;16.78;36.98;99253.81;5089478;27;124871;-89
2023/05/18 09:32:28;;;;;;;;;;;16.20;63.60;;;16.88;36.86;99266.56;5084451;27;123710;-88
2023/05/18 09:34:55;;;;;;;;;;;16.20;63.40;;;16.93;36.31;99265.53;5075509;27;114463;-88
2023/05/18 09:37:22;;;;;;;;;;;16.30;62.70;;;16.99;36.56;99255.78;5062825;27;113747;-90
2023/05/18 09:40:09;;;;;;;;;;;16.30;63.10;;;17.02;36.60;99246.69;5083179;27;124173;-87
2023/05/18 09:42:43;;;;;;;;;;;16.40;63.10;;;17.10;36.50;99254.16;5062041;27;124211;-86
2023/05/18 09:45:19;;;;;;;;;;;16.50;63.00;;;17.16;36.30;99250.00;5056619;27;116080;-88
2023/05/18 09:47:45;;;;;;;;;;;16.60;62.50;;;17.21;36.17;99246.97;5054102;27;113140;-87
2023/05/18 09:50:13;;;;;;;;;;;16.60;62.40;;;17.23;35.46;99244.66;5091040;27;124218;-91
2023/05/18 09:52:43;;;;;;;;;;;16.70;61.50;;;17.28;35.54;99234.44;5071991;27;123113;-89
2023/05/18 09:55:11;;;;;;;;;;;16.70;61.00;;;17.36;35.65;99241.91;5093649;27;114433;-90
2023/05/18 09:57:42;;;;;;;;;;;16.80;61.50;;;17.44;34.96;99243.78;5072496;27;113422;-90
2023/05/18 10:00:10;;;;;;;;;;;16.90;60.10;;;17.49;34.42;99249.13;5071515;27;124441;-85
2023/05/18 10:02:47;;;;;;;;;;;16.90;59.30;;;17.48;34.60;99239.09;5059965;27;123651;-88
2023/05/18 10:05:19;;;;;;;;;;;17.00;59.20;;;17.52;34.24;99240.06;5076674;27;113747;-88
2023/05/18 10:07:48;;;;;;;;;;;17.00;58.90;;;17.57;34.80;99222.22;5062965;27;113968;-89
2023/05/18 10:10:19;;;;;;;;;;;17.10;59.80;;;17.69;35.12;99221.44;5074941;27;124193;-90
2023/05/18 10:12:49;;;;;;;;;;;17.20;60.30;;;17.78;35.02;99222.91;5066701;27;123828;-89
2023/05/18 10:15:20;;;;;;;;;;;17.30;60.00;;;17.88;34.37;99224.47;5074325;27;115428;-90
2023/05/18 10:17:55;;;;;;;;;;;17.30;59.50;;;17.91;33.74;99226.56;5069015;27;114447;-90
2023/05/18 10:20:23;;;;;;;;;;;17.30;58.20;;;17.88;33.58;99224.47;5077663;27;124245;-87
2023/05/18 10:22:49;;;;;;;;;;;17.30;57.80;;;17.88;33.13;99230.06;5054708;27;123726;-92
2023/05/18 10:25:23;;;;;;;;;;;17.30;57.20;;;17.83;33.43;99221.91;5064068;27;113462;-88
2023/05/18 10:27:50;;;;;;;;;;;17.30;57.40;;;17.83;33.88;99216.31;5047186;27;112861;-91
2023/05/18 10:30:17;;;;;;;;;;;17.30;57.60;;;17.83;34.06;99208.75;5049315;27;124173;-89
2023/05/18 10:32:44;;;;;;;;;;;17.30;58.00;;;17.91;33.24;99218.19;5050929;27;124253;-92
2023/05/18 10:35:13;;;;;;;;;;;17.40;57.50;;;17.95;33.50;99219.13;5058157;27;114650;-91
2023/05/18 10:37:46;;;;;;;;;;;17.40;57.30;;;17.95;33.38;99219.13;5069879;27;113807;-89
2023/05/18 10:40:13;;;;;;;;;;;17.40;57.00;;;17.95;33.61;99226.69;5057054;27;124374;-90
2023/05/18 10:42:42;;;;;;;;;;;17.40;57.50;;;17.98;33.50;99212.00;5054060;27;123424;-90
2023/05/18 10:45:09;;;;;;;;;;;17.40;57.00;;;17.96;33.22;99209.53;5047438;27;113214;-87
2023/05/18 10:47:39;;;;;;;;;;;17.40;56.50;;;18.00;33.63;99204.06;5058459;27;112843;-88
2023/05/18 10:50:05;;;;;;;;;;;17.50;57.20;;;18.05;33.55;99215.84;5063698;27;125098;-89
2023/05/18 10:52:38;;;;;;;;;;;17.60;57.10;;;18.12;32.59;99203.25;5058427;27;123280;-90
2023/05/18 10:55:07;;;;;;;;;;;17.60;55.70;;;18.17;32.57;99208.59;5049583;27;113597;-90
2023/05/18 10:57:42;;;;;;;;;;;17.60;55.60;;;18.21;32.58;99201.09;5054527;27;113570;-89
2023/05/18 11:00:09;;;;;;;;;;;17.70;55.60;;;18.24;32.19;99197.59;5057958;27;124246;-91
2023/05/18 11:02:41;;;;;;;;;;;17.70;55.10;;;18.25;32.76;99205.66;5054368;27;123913;-91
2023/05/18 11:05:08;;;;;;;;;;;17.70;55.40;;;18.24;32.44;99203.19;5037084;27;114908;-88
2023/05/18 11:07:35;;;;;;;;;;;17.80;55.40;;;18.26;32.37;99195.25;5053919;27;113759;-88
2023/05/18 11:10:07;;;;;;;;;;;17.80;55.10;;;18.31;32.25;99192.22;5071202;27;123806;-89
2023/05/18 11:12:36;;;;;;;;;;;17.90;55.00;;;18.42;32.39;99192.53;5069201;27;124142;-88
2023/05/18 11:15:04;;;;;;;;;;;17.90;54.90;;;18.50;32.03;99195.19;5067044;27;114832;-89
2023/05/18 11:17:36;;;;;;;;;;;18.00;54.50;;;18.61;31.71;99189.06;5069422;27;113733;-91
2023/05/18 11:20:08;;;;;;;;;;;18.10;54.20;;;18.69;32.02;99196.50;5059540;27;123797;-88
2023/05/18 11:22:58;;;;;;;;;;;18.20;54.80;;;18.79;32.29;99184.81;5067784;27;124258;-89
2023/05/18 11:25:24;;;;;;;;;;;18.30;54.90;;;18.92;31.75;99192.00;5060154;27;114137;-88
2023/05/18 11:28:10;;;;;;;;;;;18.40;54.50;;;19.04;31.94;99190.28;5078561;27;113833;-87
2023/05/18 11:30:39;;;;;;;;;;;18.50;55.10;;;19.18;31.45;99182.25;5059743;27;124226;-83
2023/05/18 11:33:35;;;;;;;;;;;19.30;54.50;;;19.23;31.29;99189.56;5078164;27;125134;-87
2023/05/18 11:36:07;;;;;;;;;;;18.70;54.40;;;19.32;31.35;99185.44;5065121;27;114678;-89
2023/05/18 11:38:54;;;;;;;;;;;18.80;54.00;;;19.38;30.87;99186.78;5053947;27;113352;-90